Meteo Giornale » Osservazioni meteo Russia » Moscow Ramenskoye
ore: 09:00 - Osservazioni Meteo Moscow Ramenskoye
Lat. 55° 33' N Lon. 38° 9' E Alt. 123 metri s.l.m.
16 °C
Sereno
Temp. 24 Ore
9 °C
21 °C
Nord
7.2 Km/h
Dew point 16 °C
Umidità 100 %
Visibilità 10 Km
Il sole sorge alle ore 05:32
Il sole tramonta alle ore 19:22
| Data e Ora | Cielo e Fenomeni | T °C | DP °C | Um. % | Pres. hPa | Vis. km | Vento km/h | |
|---|---|---|---|---|---|---|---|---|
| Oggi h: 09:00 | Sereno | 16 | 16 | 100 | 1017 | 10 | N 7.2 | |
| Oggi h: 08:30 | Sereno | 14 | 14 | 100 | 1017 | 9 | N 7.2 | |
| Oggi h: 08:10 | Foschia | 13 | 12 | 93 | 1017 | 2 | N 7.2 | |
| Oggi h: 08:00 | Nebbia a tratti | 13 | 12 | 93 | 1017 | 0.8 | N 7.2 | |
| Oggi h: 07:30 | Nebbia | 11 | 11 | 100 | 1017 | 0.2 | N 7.2 | |
| Oggi h: 07:00 | Nebbia | 10 | 10 | 100 | 1017 | 0.2 | N 7.2 | |
| Oggi h: 06:30 | Nebbia | 10 | 9 | 93 | 1017 | 0.2 | N 7.2 | |
| Oggi h: 06:00 | Nebbia | 9 | 9 | 100 | 1017 | 0.15 | E/SE 10.8 | |
| Oggi h: 05:36 | Nebbia | 9 | 9 | 100 | 1017 | 0.15 | N 7.2 | |
| Oggi h: 05:30 | Nebbia | 9 | 9 | 100 | 1017 | 0.1 | N 7.2 | |
| Oggi h: 05:00 | Nebbia | 9 | 9 | 100 | 1017 | 0.15 | N 7.2 | |
| Oggi h: 04:30 | Nebbia | 9 | 9 | 100 | 1017 | 0.15 | N 7.2 | |
| Oggi h: 04:00 | Nebbia | 9 | 9 | 100 | 1017 | 0.15 | N 7.2 | |
| Oggi h: 03:30 | Nebbia | 10 | 10 | 100 | 1017 | 0.1 | N 7.2 | |
| Oggi h: 03:00 | Nebbia | 10 | 10 | 100 | 1017 | 0.15 | N 7.2 | |
| Oggi h: 02:30 | Nebbia | 10 | 9 | 93 | 1017 | 0.2 | N 7.2 | |
| Oggi h: 02:00 | Nebbia | 10 | 10 | 100 | 1018 | 0.2 | N 7.2 | |
| Oggi h: 01:51 | Nebbia | 10 | 10 | 100 | 1018 | 0.15 | N 3.6 | |
| Oggi h: 01:30 | Nebbia a tratti | 10 | 9 | 93 | 1018 | 0.7 | N 3.6 | |
| Oggi h: 01:02 | Nebbia a tratti | 10 | 10 | 100 | 1018 | 0.25 | N 7.2 | |
| Oggi h: 01:00 | Nebbia a tratti | 10 | 10 | 100 | 1018 | 0.3 | N 7.2 | |
| Oggi h: 00:30 | Nebbia a tratti | 11 | 11 | 100 | 1018 | 0.35 | N 7.2 | |
| Oggi h: 00:21 | Nebbia a tratti | 11 | 11 | 100 | 1018 | 0.5 | N 3.6 | |
| Oggi h: 00:20 | Nebbia a tratti | 11 | 11 | 100 | 1018 | 0.3 | N 3.6 | |
| Oggi h: 00:18 | Nebbia a tratti | 11 | 11 | 100 | 1018 | 0.55 | N 3.6 | |
| Oggi h: 00:04 | Nebbia a tratti | 11 | 10 | 93 | 1018 | 0.65 | N 3.6 | |
| Oggi h: 00:00 | Sereno | 11 | 11 | 100 | 1018 | 8 | N 3.6 | |
| Ieri h: 23:52 | Nebbia a tratti | 11 | 10 | 93 | 1018 | 0.65 | N 3.6 | |
| Ieri h: 23:45 | Foschia | 11 | 10 | 93 | 1018 | 2 | N 3.6 | |
| Ieri h: 23:35 | Nebbia a tratti | 11 | 10 | 93 | 1018 | 0.55 | N 3.6 | |
| Ieri h: 23:33 | Nebbia a tratti | 11 | 10 | 93 | 1018 | 0.75 | N 7.2 | |
| Ieri h: 23:30 | Sereno | 11 | 10 | 93 | 1018 | 7 | N 7.2 | |
| Ieri h: 23:00 | Sereno | 11 | 11 | 100 | 1018 | 8 | N 3.6 | |
| Ieri h: 22:50 | Foschia | 11 | 11 | 100 | 1018 | 2 | N 7.2 | |
| Ieri h: 22:48 | Foschia | 11 | 10 | 93 | 1018 | 4 | N 7.2 | |
| Ieri h: 22:30 | Sereno | 11 | 10 | 93 | 1018 | 8 | N 3.6 | |
| Ieri h: 22:00 | Foschia | 13 | 12 | 93 | 1018 | 2 | N 0 | |
| Ieri h: 21:46 | Foschia | 13 | 12 | 93 | 1018 | 3 | N 0 | |
| Ieri h: 21:34 | Nebbia a tratti | 13 | 12 | 93 | 1018 | 0.4 | N 0 | |
| Ieri h: 21:30 | Foschia | 13 | 12 | 93 | 1018 | 5 | N 0 | |
| Ieri h: 21:16 | Foschia | 14 | 13 | 93 | 1018 | 5 | N 3.6 | |
| Ieri h: 21:03 | Nebbia a tratti | 13 | 12 | 93 | 1018 | 0.65 | N 3.6 | |
| Ieri h: 21:00 | Foschia | 13 | 12 | 93 | 1018 | 2 | N 3.6 | |
| Ieri h: 20:30 | Sereno | 14 | 13 | 93 | 1017 | 9 | N 3.6 | |
| Ieri h: 20:00 | Sereno | 15 | 13 | 87 | 1017 | 10 | N 7.2 | |
| Ieri h: 19:30 | Sereno | 17 | 13 | 77 | 1017 | 10 | N 7.2 | |
| Ieri h: 19:00 | Sereno | 18 | 13 | 72 | 1017 | 10 | N 7.2 | |
| Ieri h: 18:30 | Sereno | 19 | 13 | 68 | 1017 | 10 | O/SO 10.8 | |
| Ieri h: 18:00 | Sereno | 20 | 14 | 68 | 1017 | 10 | O 10.8 | |
| Ieri h: 17:30 | Poco Nuvoloso | 20 | 13 | 64 | 1018 | 10 | N 7.2 | |
| Ieri h: 17:00 | Nuvoloso | 21 | 13 | 60 | 1018 | 10 | O/SO 10.8 | |
| Ieri h: 16:30 | Nuvoloso | 20 | 14 | 68 | 1018 | 10 | SO 10.8 | |
| Ieri h: 16:00 | Molto Nuvoloso | 19 | 14 | 72 | 1018 | 10 | O/SO 10.8 | |
| Ieri h: 15:30 | Molto Nuvoloso | 20 | 14 | 68 | 1018 | 10 | O/SO 14.4 | |
| Ieri h: 15:00 | Molto Nuvoloso | 19 | 13 | 68 | 1018 | 10 | O/SO 10.8 | |
| Ieri h: 14:30 | Molto Nuvoloso | 20 | 13 | 64 | 1018 | 10 | O 10.8 | |
| Ieri h: 14:00 | Molto Nuvoloso | 20 | 14 | 68 | 1018 | 10 | N 7.2 | |
| Ieri h: 13:30 | Molto Nuvoloso | 20 | 14 | 68 | 1018 | 10 | O 10.8 | |
| Ieri h: 13:00 | Molto Nuvoloso | 19 | 14 | 72 | 1018 | 10 | O 14.4 | |
| Ieri h: 12:30 | Molto Nuvoloso | 20 | 13 | 64 | 1018 | 10 | O 14.4 | |
| Ieri h: 12:00 | Molto Nuvoloso | 20 | 14 | 68 | 1018 | 10 | O 14.4 | |
| Ieri h: 11:30 | Molto Nuvoloso | 21 | 14 | 64 | 1018 | 10 | O 14.4 | |
| Ieri h: 11:00 | Molto Nuvoloso | 18 | 15 | 82 | 1018 | 10 | O 14.4 | |
| Ieri h: 10:30 | Molto Nuvoloso | 19 | 15 | 77 | 1018 | 10 | N 7.2 | |
| Ieri h: 10:00 | Molto Nuvoloso | 18 | 15 | 82 | 1018 | 10 | N 7.2 | |



